Time;durP1;ratioP1;P1;durP2;ratioP2;P2;SDS_P1;SDS_P2;PMS_P1;PMS_P2;Temp;Humidity;BMP_temperature;BMP_pressure;BME280_temperature;BME280_humidity;BME280_pressure;Samples;Min_cycle;Max_cycle;Signal;HPM_P1;HPM_P2
2023/09/09 00:00:18;;;;;;;;;;;;;;;;;;6253851;22;19907;-94
2023/09/09 00:02:44;;;;;;;;;;;;;;;;;;6255925;22;19956;-92
2023/09/09 00:05:16;;;;;;;;;;;;;;;;;;6253581;22;20331;-94
2023/09/09 00:07:42;;;;;;;;;;;;;;;;;;6262531;22;19907;-95
2023/09/09 00:10:08;;;;;;;;;;;;;;;;;;6253010;22;19930;-95
2023/09/09 00:12:34;;;;;;;;;;;;;;;;;;6258537;22;19922;-94
2023/09/09 00:15:03;;;;;;;;;;;;;;;;;;6256026;22;20332;-94
2023/09/09 00:17:38;;;;;;;;;;;;;;;;;;6253897;22;19914;-95
2023/09/09 00:20:13;;;;;;;;;;;;;;;;;;6258188;22;19920;-95
2023/09/09 00:22:39;;;;;;;;;;;;;;;;;;6260922;22;19908;-92
2023/09/09 00:25:05;;;;;;;;;;;;;;;;;;6254076;22;19957;-93
2023/09/09 00:27:30;;;;;;;;;;;;;;;;;;6256382;22;19953;-92
2023/09/09 00:29:56;;;;;;;;;;;;;;;;;;6254153;22;19907;-93
2023/09/09 00:32:22;;;;;;;;;;;;;;;;;;6254005;22;20335;-93
2023/09/09 00:37:36;;;;;;;;;;;;;;;;;;6286454;22;20386;-93
2023/09/09 00:40:04;;;;;;;;;;;;;;;;;;6253771;22;19909;-93
2023/09/09 00:42:30;;;;;;;;;;;;;;;;;;6255414;22;19987;-93
2023/09/09 00:44:56;;;;;;;;;;;;;;;;;;6253447;22;19904;-96
2023/09/09 00:47:22;;;;;;;;;;;;;;;;;;6257711;22;19887;-95
2023/09/09 00:49:48;;;;;;;;;;;;;;;;;;6258738;22;20364;-96
2023/09/09 00:52:17;;;;;;;;;;;;;;;;;;6256151;22;19950;-93
2023/09/09 00:54:42;;;;;;;;;;;;;;;;;;6253919;22;19939;-94
2023/09/09 00:57:08;;;;;;;;;;;;;;;;;;6276329;22;19907;-93
2023/09/09 00:59:34;;;;;;;;;;;;;;;;;;6280384;22;19891;-94
2023/09/09 01:02:02;;;;;;;;;;;;;;;;;;6257887;22;19908;-92
2023/09/09 01:04:28;;;;;;;;;;;;;;;;;;6254490;22;20261;-94
2023/09/09 01:06:54;;;;;;;;;;;;;;;;;;6256234;22;19911;-94
2023/09/09 01:09:20;;;;;;;;;;;;;;;;;;6254399;22;19904;-93
2023/09/09 01:11:46;;;;;;;;;;;;;;;;;;6252953;22;19904;-93
2023/09/09 01:14:13;;;;;;;;;;;;;;;;;;6254490;22;19919;-94
2023/09/09 01:16:38;;;;;;;;;;;;;;;;;;6258694;22;19903;-92
2023/09/09 01:19:04;;;;;;;;;;;;;;;;;;6254839;22;19939;-95
2023/09/09 01:21:31;;;;;;;;;;;;;;;;;;6272097;22;20275;-94
2023/09/09 01:23:57;;;;;;;;;;;;;;;;;;6256946;22;19993;-94
2023/09/09 01:26:23;;;;;;;;;;;;;;;;;;6252702;22;19903;-95
2023/09/09 01:28:49;;;;;;;;;;;;;;;;;;6254206;22;19930;-96
2023/09/09 01:31:15;;;;;;;;;;;;;;;;;;6257423;22;19903;-96
2023/09/09 01:33:41;;;;;;;;;;;;;;;;;;6256816;22;20013;-96
2023/09/09 01:36:09;;;;;;;;;;;;;;;;;;6274630;22;19920;-95
2023/09/09 01:38:35;;;;;;;;;;;;;;;;;;6282037;22;19884;-95
2023/09/09 01:41:19;;;;;;;;;;;;;;;;;;6280997;22;19930;-95
2023/09/09 01:43:45;;;;;;;;;;;;;;;;;;6289667;22;19899;-95
2023/09/09 01:46:14;;;;;;;;;;;;;;;;;;6279791;22;19910;-94
2023/09/09 01:48:40;;;;;;;;;;;;;;;;;;6277393;22;19900;-94
2023/09/09 01:51:06;;;;;;;;;;;;;;;;;;6277810;22;19911;-94
2023/09/09 01:53:32;;;;;;;;;;;;;;;;;;6279196;22;19915;-94
2023/09/09 01:55:58;;;;;;;;;;;;;;;;;;6279539;22;19904;-94
2023/09/09 01:58:24;;;;;;;;;;;;;;;;;;6280923;22;19990;-93
2023/09/09 02:00:50;;;;;;;;;;;;;;;;;;6279772;22;19904;-95
2023/09/09 02:03:16;;;;;;;;;;;;;;;;;;6279118;22;19910;-95
2023/09/09 02:05:42;;;;;;;;;;;;;;;;;;6277445;22;20489;-95
2023/09/09 02:08:08;;;;;;;;;;;;;;;;;;6277237;22;19934;-95
2023/09/09 02:10:34;;;;;;;;;;;;;;;;;;6278531;22;19953;-94
2023/09/09 02:13:00;;;;;;;;;;;;;;;;;;6281014;22;20324;-94
2023/09/09 02:15:26;;;;;;;;;;;;;;;;;;6277486;22;19962;-95
2023/09/09 02:17:52;;;;;;;;;;;;;;;;;;6277369;22;19909;-95
2023/09/09 02:20:18;;;;;;;;;;;;;;;;;;6255115;22;19927;-96
2023/09/09 02:22:47;;;;;;;;;;;;;;;;;;6254038;22;19899;-94
2023/09/09 02:25:13;;;;;;;;;;;;;;;;;;6252201;22;19978;-93
2023/09/09 02:27:39;;;;;;;;;;;;;;;;;;6253420;22;19904;-94
2023/09/09 02:30:05;;;;;;;;;;;;;;;;;;6252258;22;20393;-94
2023/09/09 02:32:31;;;;;;;;;;;;;;;;;;6255968;22;19982;-94
2023/09/09 02:34:57;;;;;;;;;;;;;;;;;;6253568;22;19914;-94
2023/09/09 02:37:23;;;;;;;;;;;;;;;;;;6254725;22;19974;-94
2023/09/09 02:39:49;;;;;;;;;;;;;;;;;;6255725;22;19910;-93
2023/09/09 02:42:15;;;;;;;;;;;;;;;;;;6262398;22;19891;-93
2023/09/09 02:44:41;;;;;;;;;;;;;;;;;;6271755;22;19928;-94
2023/09/09 02:47:07;;;;;;;;;;;;;;;;;;6263693;22;19910;-94
2023/09/09 02:49:33;;;;;;;;;;;;;;;;;;6249055;23;19910;-95
2023/09/09 02:51:59;;;;;;;;;;;;;;;;;;6255463;22;19904;-94
2023/09/09 02:54:25;;;;;;;;;;;;;;;;;;6252680;22;20210;-94
2023/09/09 02:56:52;;;;;;;;;;;;;;;;;;6281864;22;19993;-94
2023/09/09 02:59:18;;;;;;;;;;;;;;;;;;6252746;22;19957;-95
2023/09/09 03:01:47;;;;;;;;;;;;;;;;;;6253814;22;19908;-94
2023/09/09 03:04:13;;;;;;;;;;;;;;;;;;6256585;22;20351;-94
2023/09/09 03:06:39;;;;;;;;;;;;;;;;;;6256482;22;19903;-93
2023/09/09 03:09:06;;;;;;;;;;;;;;;;;;6254686;22;20313;-94
2023/09/09 03:11:32;;;;;;;;;;;;;;;;;;6252750;22;19911;-95
2023/09/09 03:13:58;;;;;;;;;;;;;;;;;;6258222;22;19899;-92
2023/09/09 03:16:24;;;;;;;;;;;;;;;;;;6253848;22;19911;-94
2023/09/09 03:18:50;;;;;;;;;;;;;;;;;;6253252;22;19907;-94
2023/09/09 03:21:16;;;;;;;;;;;;;;;;;;6255758;22;19994;-95
2023/09/09 03:23:42;;;;;;;;;;;;;;;;;;6255416;22;19913;-94
2023/09/09 03:26:08;;;;;;;;;;;;;;;;;;6267614;22;19910;-95
2023/09/09 03:28:34;;;;;;;;;;;;;;;;;;6262789;22;19931;-94
2023/09/09 03:31:00;;;;;;;;;;;;;;;;;;6256155;22;19899;-94
2023/09/09 03:33:31;;;;;;;;;;;;;;;;;;6252814;22;19961;-94
2023/09/09 03:35:56;;;;;;;;;;;;;;;;;;6255856;22;19911;-94
2023/09/09 03:41:07;;;;;;;;;;;;;;;;;;6282295;22;19911;-95
2023/09/09 03:43:36;;;;;;;;;;;;;;;;;;6259334;22;19908;-93
2023/09/09 03:46:02;;;;;;;;;;;;;;;;;;6257672;22;19973;-93
2023/09/09 03:48:28;;;;;;;;;;;;;;;;;;6259379;22;20302;-93
2023/09/09 03:50:54;;;;;;;;;;;;;;;;;;6257920;22;19950;-94
2023/09/09 03:53:20;;;;;;;;;;;;;;;;;;6261382;22;19961;-94
2023/09/09 03:58:31;;;;;;;;;;;;;;;;;;6284747;22;19914;-94
2023/09/09 04:00:57;;;;;;;;;;;;;;;;;;6254588;22;19907;-95
2023/09/09 04:03:23;;;;;;;;;;;;;;;;;;6255988;22;19910;-94
2023/09/09 04:05:52;;;;;;;;;;;;;;;;;;6260972;22;19904;-91
2023/09/09 04:08:18;;;;;;;;;;;;;;;;;;6257934;22;20228;-93
2023/09/09 04:10:44;;;;;;;;;;;;;;;;;;6255778;22;19983;-96
2023/09/09 04:13:10;;;;;;;;;;;;;;;;;;6255341;22;20252;-93
2023/09/09 04:15:36;;;;;;;;;;;;;;;;;;6259817;22;19907;-94
2023/09/09 04:18:02;;;;;;;;;;;;;;;;;;6256246;22;19903;-94
2023/09/09 04:20:28;;;;;;;;;;;;;;;;;;6255945;22;19903;-95
2023/09/09 04:22:57;;;;;;;;;;;;;;;;;;6257743;22;19903;-92
2023/09/09 04:25:24;;;;;;;;;;;;;;;;;;6267948;22;19923;-95
2023/09/09 04:30:20;;;;;;;;;;;;;;;;;;6306853;22;19934;-95
2023/09/09 04:32:46;;;;;;;;;;;;;;;;;;6276207;22;19990;-95
2023/09/09 04:35:12;;;;;;;;;;;;;;;;;;6261548;22;19903;-96
2023/09/09 04:37:38;;;;;;;;;;;;;;;;;;6252566;22;19966;-94
2023/09/09 04:42:49;;;;;;;;;;;;;;;;;;6289091;22;19923;-94
2023/09/09 04:45:23;;;;;;;;;;;;;;;;;;6258872;22;20347;-94
2023/09/09 04:47:49;;;;;;;;;;;;;;;;;;6260481;22;19907;-93
2023/09/09 04:50:15;;;;;;;;;;;;;;;;;;6259049;22;19943;-95
2023/09/09 04:55:34;;;;;;;;;;;;;;;;;;6291507;22;19926;-96
2023/09/09 04:58:06;;;;;;;;;;;;;;;;;;6260662;22;19939;-93
2023/09/09 05:00:32;;;;;;;;;;;;;;;;;;6256716;22;20280;-93
2023/09/09 05:02:58;;;;;;;;;;;;;;;;;;6254403;22;19899;-94
2023/09/09 05:05:24;;;;;;;;;;;;;;;;;;6256162;22;19903;-94
2023/09/09 05:07:50;;;;;;;;;;;;;;;;;;6257447;22;20347;-95
2023/09/09 05:10:27;;;;;;;;;;;;;;;;;;6255037;22;20000;-96
2023/09/09 05:12:53;;;;;;;;;;;;;;;;;;6256453;22;19985;-96
2023/09/09 05:15:22;;;;;;;;;;;;;;;;;;6257176;22;19910;-93
2023/09/09 05:17:48;;;;;;;;;;;;;;;;;;6260777;22;19913;-94
2023/09/09 05:20:28;;;;;;;;;;;;;;;;;;6265074;22;20045;-95
2023/09/09 05:26:06;;;;;;;;;;;;;;;;;;;;;
2023/09/09 05:28:53;;;;;;;;;;;;;;;;;;6189761;23;19940;-95
2023/09/09 05:31:18;;;;;;;;;;;;;;;;;;6273855;22;19903;-93
2023/09/09 05:33:44;;;;;;;;;;;;;;;;;;6261783;22;20307;-93
2023/09/09 05:36:16;;;;;;;;;;;;;;;;;;6251647;22;19903;-93
2023/09/09 05:39:03;;;;;;;;;;;;;;;;;;;;;
2023/09/09 05:44:36;;;;;;;;;;;;;;;;;;6278502;22;19974;-94
2023/09/09 05:47:08;;;;;;;;;;;;;;;;;;6250854;22;20317;-93
2023/09/09 05:49:43;;;;;;;;;;;;;;;;;;6252384;22;19903;-94
2023/09/09 05:52:17;;;;;;;;;;;;;;;;;;6251705;22;19911;-94
2023/09/09 05:57:37;;;;;;;;;;;;;;;;;;;;;
2023/09/09 06:02:48;;;;;;;;;;;;;;;;;;6137531;23;19933;-96
2023/09/09 06:05:17;;;;;;;;;;;;;;;;;;6107963;23;19905;-96
2023/09/09 06:10:28;;;;;;;;;;;;;;;;;;6134530;23;19929;-96
2023/09/09 06:12:53;;;;;;;;;;;;;;;;;;6108935;23;19912;-94
2023/09/09 06:15:19;;;;;;;;;;;;;;;;;;6199961;23;19907;-94
2023/09/09 06:23:30;;;;;;;;;;;;;;;;;;6221057;23;19951;-94
2023/09/09 06:25:59;;;;;;;;;;;;;;;;;;6227282;23;19892;-96
2023/09/09 06:28:25;;;;;;;;;;;;;;;;;;6220056;23;19908;-95
2023/09/09 06:30:52;;;;;;;;;;;;;;;;;;6219147;23;19986;-95
2023/09/09 06:33:24;;;;;;;;;;;;;;;;;;6219718;23;19916;-96
2023/09/09 06:35:50;;;;;;;;;;;;;;;;;;6220019;23;19915;-96
2023/09/09 06:38:22;;;;;;;;;;;;;;;;;;6217164;23;19979;-96
2023/09/09 06:40:48;;;;;;;;;;;;;;;;;;6219525;23;19939;-96
2023/09/09 06:43:14;;;;;;;;;;;;;;;;;;6240348;22;19920;-96
2023/09/09 06:45:40;;;;;;;;;;;;;;;;;;6248246;23;19975;-96
2023/09/09 06:48:06;;;;;;;;;;;;;;;;;;6248364;22;19911;-95
2023/09/09 06:50:32;;;;;;;;;;;;;;;;;;6249379;23;20422;-96
2023/09/09 06:52:58;;;;;;;;;;;;;;;;;;6250733;22;20002;-94
2023/09/09 06:55:27;;;;;;;;;;;;;;;;;;6247438;23;19907;-95
2023/09/09 06:57:53;;;;;;;;;;;;;;;;;;6252545;23;19908;-95
2023/09/09 07:00:19;;;;;;;;;;;;;;;;;;6252137;22;20329;-95
2023/09/09 07:02:45;;;;;;;;;;;;;;;;;;6272156;22;19920;-95
2023/09/09 07:05:16;;;;;;;;;;;;;;;;;;6278104;22;19899;-96
2023/09/09 07:07:42;;;;;;;;;;;;;;;;;;6281469;22;19915;-96
2023/09/09 07:10:08;;;;;;;;;;;;;;;;;;6281918;22;20236;-96
2023/09/09 07:12:34;;;;;;;;;;;;;;;;;;6284609;22;19922;-96
2023/09/09 07:15:00;;;;;;;;;;;;;;;;;;6284858;22;19891;-96
2023/09/09 07:17:26;;;;;;;;;;;;;;;;;;6279985;22;20290;-96
2023/09/09 07:19:52;;;;;;;;;;;;;;;;;;6281503;22;19910;-94
2023/09/09 07:22:18;;;;;;;;;;;;;;;;;;6258181;22;19939;-95
2023/09/09 07:24:44;;;;;;;;;;;;;;;;;;6255702;22;19903;-95
2023/09/09 07:27:10;;;;;;;;;;;;;;;;;;6254972;22;19915;-96
2023/09/09 07:29:36;;;;;;;;;;;;;;;;;;6253925;22;20384;-96
2023/09/09 07:32:02;;;;;;;;;;;;;;;;;;6260796;22;19910;-96
2023/09/09 07:34:45;;;;;;;;;;;;;;;;;;6255525;22;19903;-95
2023/09/09 07:37:11;;;;;;;;;;;;;;;;;;6257013;22;20240;-95
2023/09/09 07:39:37;;;;;;;;;;;;;;;;;;6263952;22;19939;-96
2023/09/09 07:42:03;;;;;;;;;;;;;;;;;;6273305;22;19907;-95
2023/09/09 07:44:29;;;;;;;;;;;;;;;;;;6257707;22;19887;-95
2023/09/09 07:46:55;;;;;;;;;;;;;;;;;;6257010;22;19903;-94
2023/09/09 07:49:21;;;;;;;;;;;;;;;;;;6254927;22;19913;-96
2023/09/09 07:51:47;;;;;;;;;;;;;;;;;;6256224;22;19908;-96
2023/09/09 07:54:13;;;;;;;;;;;;;;;;;;6261335;22;19919;-95
2023/09/09 07:56:42;;;;;;;;;;;;;;;;;;6256244;22;19900;-96
2023/09/09 07:59:08;;;;;;;;;;;;;;;;;;6261998;22;19903;-95
2023/09/09 08:01:37;;;;;;;;;;;;;;;;;;6273742;22;19911;-94
2023/09/09 08:04:03;;;;;;;;;;;;;;;;;;6269693;22;19923;-94
2023/09/09 08:06:29;;;;;;;;;;;;;;;;;;6279696;22;19974;-94
2023/09/09 08:08:56;;;;;;;;;;;;;;;;;;6277986;22;20245;-94
2023/09/09 08:11:22;;;;;;;;;;;;;;;;;;6286256;22;19906;-94
2023/09/09 08:13:48;;;;;;;;;;;;;;;;;;6277965;22;19911;-95
2023/09/09 08:16:14;;;;;;;;;;;;;;;;;;6275622;22;19904;-96
2023/09/09 08:18:40;;;;;;;;;;;;;;;;;;6274105;22;19903;-96
2023/09/09 08:21:06;;;;;;;;;;;;;;;;;;6275884;22;19904;-95
2023/09/09 08:23:32;;;;;;;;;;;;;;;;;;6279836;22;19915;-95
2023/09/09 08:28:42;;;;;;;;;;;;;;;;;;6249860;23;20232;-96
2023/09/09 08:31:12;;;;;;;;;;;;;;;;;;6281642;22;19904;-96
2023/09/09 08:36:15;;;;;;;;;;;;;;;;;;6280600;22;19942;-95
2023/09/09 08:38:41;;;;;;;;;;;;;;;;;;6256469;22;19966;-95
2023/09/09 08:41:07;;;;;;;;;;;;;;;;;;6256750;22;19910;-94
2023/09/09 08:46:12;;;;;;;;;;;;;;;;;;6255287;22;19970;-95
2023/09/09 08:48:44;;;;;;;;;;;;;;;;;;6257228;22;19902;-94
2023/09/09 08:51:10;;;;;;;;;;;;;;;;;;6257362;22;19953;-96
2023/09/09 08:53:36;;;;;;;;;;;;;;;;;;6248561;23;19916;-96
2023/09/09 08:56:02;;;;;;;;;;;;;;;;;;6249372;23;19911;-96
2023/09/09 08:58:28;;;;;;;;;;;;;;;;;;6254308;23;19904;-96
2023/09/09 09:03:42;;;;;;;;;;;;;;;;;;6250825;22;19996;-96
2023/09/09 09:06:09;;;;;;;;;;;;;;;;;;6248006;23;19928;-96
2023/09/09 09:08:44;;;;;;;;;;;;;;;;;;6251350;23;19904;-96
2023/09/09 09:11:10;;;;;;;;;;;;;;;;;;6249001;22;19912;-96
2023/09/09 09:13:36;;;;;;;;;;;;;;;;;;6249673;23;19912;-96
2023/09/09 09:16:02;;;;;;;;;;;;;;;;;;6251456;23;19904;-95
2023/09/09 09:18:28;;;;;;;;;;;;;;;;;;6250429;22;20002;-96
2023/09/09 09:20:57;;;;;;;;;;;;;;;;;;6248792;23;19931;-96
2023/09/09 09:23:24;;;;;;;;;;;;;;;;;;6248504;22;19929;-96
2023/09/09 09:25:50;;;;;;;;;;;;;;;;;;6249095;23;20336;-95
2023/09/09 09:28:16;;;;;;;;;;;;;;;;;;6247805;23;19907;-96
2023/09/09 09:30:42;;;;;;;;;;;;;;;;;;6249153;22;20329;-95
2023/09/09 09:33:08;;;;;;;;;;;;;;;;;;6249329;23;19912;-96
2023/09/09 09:35:35;;;;;;;;;;;;;;;;;;6249493;23;19935;-96
2023/09/09 09:38:01;;;;;;;;;;;;;;;;;;6248853;23;19887;-95
2023/09/09 09:40:30;;;;;;;;;;;;;;;;;;6250555;23;19907;-96
2023/09/09 09:42:56;;;;;;;;;;;;;;;;;;6250657;23;19908;-95
2023/09/09 09:45:22;;;;;;;;;;;;;;;;;;6259897;22;20428;-95
2023/09/09 09:47:48;;;;;;;;;;;;;;;;;;6244903;23;19888;-95
2023/09/09 09:50:14;;;;;;;;;;;;;;;;;;6226426;23;19924;-96
2023/09/09 09:52:40;;;;;;;;;;;;;;;;;;6218964;23;19923;-96
2023/09/09 09:55:07;;;;;;;;;;;;;;;;;;6225628;23;19935;-96
2023/09/09 09:57:33;;;;;;;;;;;;;;;;;;6222057;23;19904;-95
2023/09/09 10:00:00;;;;;;;;;;;;;;;;;;6219161;23;19904;-96
2023/09/09 10:02:29;;;;;;;;;;;;;;;;;;6219248;23;19904;-95
2023/09/09 10:04:55;;;;;;;;;;;;;;;;;;6221530;23;19904;-95
2023/09/09 10:07:23;;;;;;;;;;;;;;;;;;6258931;22;19926;-94
2023/09/09 10:09:49;;;;;;;;;;;;;;;;;;6259076;22;19913;-95
2023/09/09 10:12:15;;;;;;;;;;;;;;;;;;6253627;22;19907;-95
2023/09/09 10:14:41;;;;;;;;;;;;;;;;;;6255069;22;19908;-95
2023/09/09 10:17:07;;;;;;;;;;;;;;;;;;6255671;22;19990;-96
2023/09/09 10:19:33;;;;;;;;;;;;;;;;;;6255420;22;19899;-95
2023/09/09 10:21:59;;;;;;;;;;;;;;;;;;6253259;22;19892;-95
2023/09/09 10:24:25;;;;;;;;;;;;;;;;;;6257025;22;19903;-96
2023/09/09 10:26:52;;;;;;;;;;;;;;;;;;6253004;22;19903;-94
2023/09/09 10:29:24;;;;;;;;;;;;;;;;;;6252684;22;20309;-95
2023/09/09 10:31:49;;;;;;;;;;;;;;;;;;6252949;22;19907;-95
2023/09/09 10:34:16;;;;;;;;;;;;;;;;;;6252577;22;20240;-95
2023/09/09 10:36:42;;;;;;;;;;;;;;;;;;6255980;22;19929;-95
2023/09/09 10:39:08;;;;;;;;;;;;;;;;;;6253564;22;20232;-94
2023/09/09 10:41:33;;;;;;;;;;;;;;;;;;6252874;22;19910;-94
2023/09/09 10:43:59;;;;;;;;;;;;;;;;;;6253288;22;19948;-93
2023/09/09 10:46:25;;;;;;;;;;;;;;;;;;6258097;22;19902;-93
2023/09/09 10:48:51;;;;;;;;;;;;;;;;;;6256794;22;19903;-95
2023/09/09 10:51:24;;;;;;;;;;;;;;;;;;6257542;22;19979;-95
2023/09/09 10:53:50;;;;;;;;;;;;;;;;;;6256858;22;19994;-94
2023/09/09 10:56:16;;;;;;;;;;;;;;;;;;6257605;22;19908;-94
2023/09/09 10:58:42;;;;;;;;;;;;;;;;;;6254136;22;19904;-94
2023/09/09 11:01:09;;;;;;;;;;;;;;;;;;6256203;22;19909;-95
2023/09/09 11:03:36;;;;;;;;;;;;;;;;;;6255825;22;19956;-94
2023/09/09 11:06:02;;;;;;;;;;;;;;;;;;6255613;22;20374;-93
2023/09/09 11:08:28;;;;;;;;;;;;;;;;;;6257759;22;19919;-94
2023/09/09 11:10:54;;;;;;;;;;;;;;;;;;6254226;22;19903;-93
2023/09/09 11:13:20;;;;;;;;;;;;;;;;;;6258811;22;19973;-94
2023/09/09 11:15:46;;;;;;;;;;;;;;;;;;6263941;22;19915;-92
2023/09/09 11:23:45;;;;;;;;;;;;;;;;;;6284865;22;19974;-93
2023/09/09 11:26:11;;;;;;;;;;;;;;;;;;6260392;22;19910;-94
2023/09/09 11:31:08;;;;;;;;;;;;;;;;;;6284054;22;20680;-94
2023/09/09 11:36:19;;;;;;;;;;;;;;;;;;6283713;22;19946;-94
2023/09/09 11:39:03;;;;;;;;;;;;;;;;;;6262603;22;19911;-93
2023/09/09 11:41:40;;;;;;;;;;;;;;;;;;6239762;22;21236;-91
2023/09/09 11:44:14;;;;;;;;;;;;;;;;;;6255909;22;19903;-93
2023/09/09 11:46:40;;;;;;;;;;;;;;;;;;6257660;22;19907;-92
2023/09/09 11:49:09;;;;;;;;;;;;;;;;;;6277250;22;19937;-93
2023/09/09 11:51:35;;;;;;;;;;;;;;;;;;6257216;22;19907;-93
2023/09/09 11:54:01;;;;;;;;;;;;;;;;;;6259206;22;19998;-95
2023/09/09 11:56:27;;;;;;;;;;;;;;;;;;6257919;22;19910;-93
2023/09/09 11:58:53;;;;;;;;;;;;;;;;;;6259581;22;19904;-94
2023/09/09 12:06:49;;;;;;;;;;;;;;;;;;6289140;22;19910;-93
2023/09/09 12:09:15;;;;;;;;;;;;;;;;;;6258883;22;19907;-94
2023/09/09 12:11:41;;;;;;;;;;;;;;;;;;6257729;22;20342;-95
2023/09/09 12:14:22;;;;;;;;;;;;;;;;;;6257721;22;19911;-94
2023/09/09 12:16:48;;;;;;;;;;;;;;;;;;6261425;22;19903;-93
2023/09/09 12:19:23;;;;;;;;;;;;;;;;;;6255331;22;19953;-92
2023/09/09 12:30:27;;;;;;;;;;;;;;;;;;6270221;22;19911;-95
2023/09/09 12:35:48;;;;;;;;;;;;;;;;;;6242292;23;19904;-94
2023/09/09 12:38:18;;;;;;;;;;;;;;;;;;6257942;22;19907;-95
2023/09/09 12:40:45;;;;;;;;;;;;;;;;;;6266382;22;19933;-96
2023/09/09 12:45:46;;;;;;;;;;;;;;;;;;6286598;22;19903;-94
2023/09/09 12:48:12;;;;;;;;;;;;;;;;;;6258610;22;19903;-94
2023/09/09 12:50:38;;;;;;;;;;;;;;;;;;6258882;22;19887;-94
2023/09/09 12:53:04;;;;;;;;;;;;;;;;;;6257614;22;19915;-94
2023/09/09 12:56:04;;;;;;;;;;;;;;;;;;6262924;22;19914;-96
2023/09/09 12:58:23;;;;;;;;;;;;;;;;;;6223795;23;19908;-96
2023/09/09 13:03:35;;;;;;;;;;;;;;;;;;6227020;23;19959;-96
2023/09/09 13:08:45;;;;;;;;;;;;;;;;;;6228028;22;19925;-92
2023/09/09 13:11:11;;;;;;;;;;;;;;;;;;6252378;22;20332;-93
2023/09/09 13:13:37;;;;;;;;;;;;;;;;;;6252901;22;20316;-93
2023/09/09 13:16:03;;;;;;;;;;;;;;;;;;6276386;22;19907;-94
2023/09/09 13:18:29;;;;;;;;;;;;;;;;;;6262069;22;19903;-92
2023/09/09 13:20:55;;;;;;;;;;;;;;;;;;6252231;22;20021;-96
2023/09/09 13:23:24;;;;;;;;;;;;;;;;;;6258516;22;19914;-96
2023/09/09 13:26:06;;;;;;;;;;;;;;;;;;6259009;22;19903;-96
2023/09/09 13:42:42;;;;;;;;;;;;;;;;;;;;;
2023/09/09 13:50:28;;;;;;;;;;;;;;;;;;6289859;22;19919;-93
2023/09/09 13:55:46;;;;;;;;;;;;;;;;;;6283677;22;19903;-96
2023/09/09 13:58:12;;;;;;;;;;;;;;;;;;6279872;22;19903;-94
2023/09/09 14:00:41;;;;;;;;;;;;;;;;;;6280837;22;19910;-95
2023/09/09 14:03:07;;;;;;;;;;;;;;;;;;6281429;22;19949;-96
2023/09/09 14:05:42;;;;;;;;;;;;;;;;;;6280281;22;19946;-96
2023/09/09 14:08:14;;;;;;;;;;;;;;;;;;6281936;22;19910;-96
2023/09/09 14:10:43;;;;;;;;;;;;;;;;;;6279817;22;19903;-97
2023/09/09 14:13:09;;;;;;;;;;;;;;;;;;6280439;22;19911;-94
2023/09/09 14:15:35;;;;;;;;;;;;;;;;;;6279044;22;20006;-94
2023/09/09 14:18:01;;;;;;;;;;;;;;;;;;6278626;22;19956;-95
2023/09/09 14:20:27;;;;;;;;;;;;;;;;;;6279195;22;20225;-96
2023/09/09 14:22:56;;;;;;;;;;;;;;;;;;6278369;22;19903;-95
2023/09/09 14:25:22;;;;;;;;;;;;;;;;;;6279007;22;19953;-96
2023/09/09 14:27:48;;;;;;;;;;;;;;;;;;6280713;22;20271;-96
2023/09/09 14:30:14;;;;;;;;;;;;;;;;;;6279531;22;20270;-96
2023/09/09 14:32:40;;;;;;;;;;;;;;;;;;6279172;22;19990;-94
2023/09/09 14:35:19;;;;;;;;;;;;;;;;;;;;;
2023/09/09 14:37:58;;;;;;;;;;;;;;;;;;;;;
2023/09/09 14:40:33;;;;;;;;;;;;;;;;;;6292123;22;19927;-94
2023/09/09 14:43:02;;;;;;;;;;;;;;;;;;6289284;22;19903;-96
2023/09/09 14:48:23;;;;;;;;;;;;;;;;;;6220762;23;20023;-95
2023/09/09 14:50:50;;;;;;;;;;;;;;;;;;6196962;23;19908;-95
2023/09/09 14:53:23;;;;;;;;;;;;;;;;;;6196849;23;19911;-93
2023/09/09 14:55:49;;;;;;;;;;;;;;;;;;6195426;23;19904;-94
2023/09/09 15:08:49;;;;;;;;;;;;;;;;;;6245314;23;20341;-95
2023/09/09 15:28:18;;;;;;;;;;;;;;;;;;6038888;23;19906;-96
2023/09/09 15:31:30;;;;;;;;;;;;;;;;;;6016095;23;19912;-94
2023/09/09 15:33:47;;;;;;;;;;;;;;;;;;;;;
2023/09/09 15:36:16;;;;;;;;;;;;;;;;;;6070144;23;19985;-96
2023/09/09 15:38:52;;;;;;;;;;;;;;;;;;;;;
2023/09/09 15:44:15;;;;;;;;;;;;;;;;;;6133465;23;19912;-94
2023/09/09 15:46:41;;;;;;;;;;;;;;;;;;6143859;23;20405;-93
2023/09/09 15:49:09;;;;;;;;;;;;;;;;;;6133207;23;19904;-94
2023/09/09 16:18:27;;;;;;;;;;;;;;;;;;6267666;22;19903;-90
2023/09/09 16:20:56;;;;;;;;;;;;;;;;;;6252470;22;19913;-90
2023/09/09 16:23:22;;;;;;;;;;;;;;;;;;6252729;22;19903;-91
2023/09/09 16:25:48;;;;;;;;;;;;;;;;;;6253074;22;19950;-90
2023/09/09 16:28:14;;;;;;;;;;;;;;;;;;6252713;22;19904;-90
2023/09/09 16:30:40;;;;;;;;;;;;;;;;;;6252228;22;19935;-91
2023/09/09 16:33:06;;;;;;;;;;;;;;;;;;6252374;22;19957;-93
2023/09/09 16:35:35;;;;;;;;;;;;;;;;;;6252740;22;19903;-93
2023/09/09 16:38:07;;;;;;;;;;;;;;;;;;6252379;22;19903;-92
2023/09/09 16:40:36;;;;;;;;;;;;;;;;;;6253304;22;19906;-92
2023/09/09 16:43:02;;;;;;;;;;;;;;;;;;6254093;22;19942;-95
2023/09/09 16:45:31;;;;;;;;;;;;;;;;;;6258332;22;19907;-92
2023/09/09 16:47:58;;;;;;;;;;;;;;;;;;6278694;22;19911;-92
2023/09/09 16:50:27;;;;;;;;;;;;;;;;;;6266435;22;19903;-93
2023/09/09 16:52:53;;;;;;;;;;;;;;;;;;6251994;22;19911;-93
2023/09/09 16:55:19;;;;;;;;;;;;;;;;;;6251989;22;20372;-93
2023/09/09 16:57:45;;;;;;;;;;;;;;;;;;6258617;22;19910;-96
2023/09/09 17:17:00;;;;;;;;;;;;;;;;;;6195995;23;20420;-93
2023/09/09 17:19:26;;;;;;;;;;;;;;;;;;6166037;23;19904;-93
2023/09/09 17:24:40;;;;;;;;;;;;;;;;;;6290692;22;19914;-94
2023/09/09 17:27:09;;;;;;;;;;;;;;;;;;6257008;22;19892;-93
2023/09/09 17:29:35;;;;;;;;;;;;;;;;;;6260021;22;19919;-95
2023/09/09 17:32:04;;;;;;;;;;;;;;;;;;6262179;22;19907;-95
2023/09/09 17:37:21;;;;;;;;;;;;;;;;;;6275129;22;19951;-96
2023/09/09 17:39:53;;;;;;;;;;;;;;;;;;6267938;22;19907;-96
2023/09/09 17:45:11;;;;;;;;;;;;;;;;;;6297716;22;19908;-95
2023/09/09 17:47:43;;;;;;;;;;;;;;;;;;6264166;22;20210;-95
2023/09/09 17:50:10;;;;;;;;;;;;;;;;;;6259156;22;19989;-93
2023/09/09 17:52:41;;;;;;;;;;;;;;;;;;6259902;22;19907;-96
2023/09/09 17:55:08;;;;;;;;;;;;;;;;;;6289159;22;19904;-95
2023/09/09 17:57:44;;;;;;;;;;;;;;;;;;6259527;22;19978;-93
2023/09/09 18:00:10;;;;;;;;;;;;;;;;;;6265386;22;19887;-93
2023/09/09 18:05:09;;;;;;;;;;;;;;;;;;6260009;23;20428;-94
2023/09/09 18:07:35;;;;;;;;;;;;;;;;;;6227154;23;19900;-95
2023/09/09 18:10:10;;;;;;;;;;;;;;;;;;6227625;23;19971;-92
2023/09/09 18:12:38;;;;;;;;;;;;;;;;;;6226169;23;19900;-92
2023/09/09 18:15:04;;;;;;;;;;;;;;;;;;6225173;23;19908;-93
2023/09/09 18:17:30;;;;;;;;;;;;;;;;;;6229157;23;20375;-94
2023/09/09 18:20:05;;;;;;;;;;;;;;;;;;6228315;23;19923;-92
2023/09/09 18:25:23;;;;;;;;;;;;;;;;;;6285625;22;19910;-94
2023/09/09 18:27:52;;;;;;;;;;;;;;;;;;6257384;22;19926;-96
2023/09/09 18:30:23;;;;;;;;;;;;;;;;;;6267856;22;19899;-94
2023/09/09 18:32:49;;;;;;;;;;;;;;;;;;6273584;22;19919;-96
2023/09/09 18:35:15;;;;;;;;;;;;;;;;;;6262067;22;19942;-96
2023/09/09 18:37:41;;;;;;;;;;;;;;;;;;6267556;22;19910;-92
2023/09/09 18:40:16;;;;;;;;;;;;;;;;;;6259835;22;20293;-95
2023/09/09 18:42:54;;;;;;;;;;;;;;;;;;6264037;22;19898;-93
2023/09/09 18:48:05;;;;;;;;;;;;;;;;;;6285201;22;20292;-96
2023/09/09 18:50:43;;;;;;;;;;;;;;;;;;6258991;22;20423;-95
2023/09/09 18:53:09;;;;;;;;;;;;;;;;;;6217034;23;19995;-92
2023/09/09 18:55:35;;;;;;;;;;;;;;;;;;6191618;23;19888;-96
2023/09/09 18:58:01;;;;;;;;;;;;;;;;;;6193135;23;19911;-94
2023/09/09 19:00:27;;;;;;;;;;;;;;;;;;6199103;23;19911;-94
2023/09/09 19:03:11;;;;;;;;;;;;;;;;;;6211628;22;19935;-92
2023/09/09 19:05:43;;;;;;;;;;;;;;;;;;6259344;22;20164;-95
2023/09/09 19:27:25;;;;;;;;;;;;;;;;;;6264341;23;20038;-96
2023/09/09 19:32:38;;;;;;;;;;;;;;;;;;6257638;23;19957;-95
2023/09/09 19:35:13;;;;;;;;;;;;;;;;;;6288788;22;19935;-95
2023/09/09 19:40:12;;;;;;;;;;;;;;;;;;6282282;22;19912;-95
2023/09/09 19:42:38;;;;;;;;;;;;;;;;;;6270140;22;20339;-93
2023/09/09 19:45:04;;;;;;;;;;;;;;;;;;6263072;22;19923;-93
2023/09/09 19:47:33;;;;;;;;;;;;;;;;;;6266257;22;19904;-94
2023/09/09 19:50:11;;;;;;;;;;;;;;;;;;6261484;22;20214;-94
2023/09/09 20:03:49;;;;;;;;;;;;;;;;;;6290357;22;19972;-92
2023/09/09 20:06:33;;;;;;;;;;;;;;;;;;6257167;22;19904;-93
2023/09/09 20:20:15;;;;;;;;;;;;;;;;;;6197964;23;19983;-94
2023/09/09 20:22:41;;;;;;;;;;;;;;;;;;6171244;23;19920;-95
2023/09/09 20:27:57;;;;;;;;;;;;;;;;;;6198038;23;19914;-95
2023/09/09 20:30:26;;;;;;;;;;;;;;;;;;6172704;23;19884;-96
2023/09/09 20:32:52;;;;;;;;;;;;;;;;;;6170654;23;20372;-94
2023/09/09 20:35:18;;;;;;;;;;;;;;;;;;6171219;23;19908;-95
2023/09/09 20:37:51;;;;;;;;;;;;;;;;;;6229271;22;19951;-95
2023/09/09 20:40:19;;;;;;;;;;;;;;;;;;6259871;22;20202;-95
2023/09/09 20:42:46;;;;;;;;;;;;;;;;;;6287947;22;19903;-95
2023/09/09 20:45:13;;;;;;;;;;;;;;;;;;6262032;22;19956;-96
2023/09/09 20:47:39;;;;;;;;;;;;;;;;;;6261865;22;19903;-94
2023/09/09 20:50:08;;;;;;;;;;;;;;;;;;6262553;22;19947;-95
2023/09/09 20:52:37;;;;;;;;;;;;;;;;;;6259423;22;19903;-94
2023/09/09 20:55:07;;;;;;;;;;;;;;;;;;6261783;22;20368;-96
2023/09/09 20:57:36;;;;;;;;;;;;;;;;;;6264753;22;19959;-96
2023/09/09 21:00:05;;;;;;;;;;;;;;;;;;6257062;22;19904;-96
2023/09/09 21:02:40;;;;;;;;;;;;;;;;;;6263650;22;19896;-95